Welcome to the New NWS' Forecast!
Most changes are behind the scenes, but click here for differences you might notice.
Latest weather observations around

QUILCENE (QCNW1)

Using English Units (Switch to International System of Units)
Date/ Time (PST) Wind (mph) Vis. (mi) Weather Sky Cond. Temp (°F) Rel. Humidity Wind Chill (°F) Heat Index (°F) Pressure Precip. (in)
Air Dwpt 6 hour Altimeter (inHg) Sea level (inHg) 1 hr 3 hr 6 hr
Max Min
Jan 21 21:36 W 1   Clear   36 36     100%              
Jan 21 20:36 WNW 2   Clear   36 36     99%              
Jan 21 19:36 WSW 2   Clear   37 37     99%              
Jan 21 18:36 NW 2   Clear   39 39     99%              
Jan 21 17:36 Calm   Clear   40 40     99%              
Jan 21 16:36 N 1   Clear   41 40     96%              
Jan 21 15:36 E 1   Clear   42 41     96%              
Jan 21 14:36 S 3   Clear   46 41     84% 45            
Jan 21 13:36 S 2   Clear   49 40     72%              
Jan 21 12:36 SSE 4   Clear   49 44     82% 48            
Jan 21 11:36 SSE 5   Clear   45 42     88% 42            
Jan 21 10:36 S 7   Clear   44 41     90% 40            
Jan 21 08:36 S 9   Clear   44 41     89% 39            
Jan 21 07:36 S 10   Clear   44 40     87% 39            
Jan 21 06:36 S 9   Clear   44 40     87% 39            
Jan 21 05:36 S 11   Clear   45 41     87% 39            
Jan 21 04:36 S 10   Clear   44 41     90% 39            
Jan 21 03:36 SSE 9   Clear   44 43     95% 39            
Jan 21 02:36 SSE 6   Clear   44 43     97% 41            
Jan 21 01:36 SSE 6   Clear   44 43     97% 41            
Jan 21 00:36 SSE 6   Clear   44 43     95% 41            
Jan 20 23:36 SSE 8   Clear   44 42     91% 39            
Jan 20 22:36 SE 5   Clear   44 43     95% 41            
Jan 20 21:36 SE 6   Clear   44 43     97% 41            
Jan 20 20:36 SE 5   Clear   44 43     96% 41            
Jan 20 19:36 SSE 6   Clear   44 43     96% 41            
Jan 20 18:36 SSE 5   Clear   44 42     94% 41            
Jan 20 17:36 SSE 5   Clear   44 43     95% 41            
Jan 20 16:36 SSE 5   Clear   44 43     96% 41            
Jan 20 15:36 SSE 4   Clear   44 42     94% 42            
Jan 20 14:36 SSE 5   Clear   45 42     88% 42            
Jan 20 13:36 SSE 4   Clear   43 41     93% 41            
Jan 20 12:36 S 4   Clear   43 40     88% 41            
Jan 20 11:36 SSE 4   Clear   42 42     99% 40            
Jan 20 10:36 Calm   Clear   38 38     100%              
Jan 20 09:36 Calm   Clear   34 34     100%              
Jan 20 08:36 WSW 1   Clear   33 33     100%              
Jan 20 07:36 Calm   Clear   33 33     100%              
Jan 20 06:36 Calm   Clear   33 33     100%              
Jan 20 05:36 Calm   Clear   33 33     100%              
Jan 20 04:36 W 1   Clear   33 33     99%              
Jan 20 03:36 Calm   Clear   33 33     99%              
Jan 20 02:36 Calm   Clear   34 34     99%              
Jan 20 01:36 Calm   Clear   36 36     99%              
Jan 20 00:36 SW 1   Clear   37 37     99%              
Jan 19 23:36 Calm   Clear   38 38     99%              
Jan 19 22:36 Calm   Clear   38 38     99%              
Jan 19 21:36 WSW 1   Clear   39 38     98%              
Jan 19 20:36 Calm   Clear   40 39     96%              
Jan 19 19:36 NE 1   Clear   41 39     92%              
Jan 19 18:36 SE 3   Clear   42 41     95% 41            
Jan 19 17:36 SSE 4   Clear   42 40     94% 40            
Jan 19 16:36 ESE 3   Clear   42 41     95% 41            
Jan 19 15:36 SE 3   Clear   43 41     94% 42            
Jan 19 14:36 SSE 3   Clear   43 41     94% 42            
Jan 19 13:36 SE 4   Clear   43 41     91% 41            
Jan 19 12:36 S 5   Clear   42 39     88% 39            
Jan 19 11:36 SSE 5   Clear   42 39     89% 39            
Jan 19 10:36 SSE 5   Clear   43 40     90% 40            
Jan 19 09:36 SSE 6   Clear   42 40     92% 38            
Jan 19 08:36 SSE 3   Clear   41 39     94% 39            
Jan 19 07:36 SSE 4   Clear   40 38     93% 37            
Jan 19 06:36 SSE 4   Clear   40 38     94% 37            
Jan 19 05:36 SSE 4   Clear   40 38     94% 37            
Jan 19 04:36 SSE 4   Clear   40 39     95% 37            
Jan 19 03:36 SE 3   Clear   40 39     97% 38            
Jan 19 02:36 SSE 3   Clear   40 39     96% 38            
Jan 19 01:36 SSE 4   Clear   40 39     97% 37            
Jan 19 00:36 SSE 4   Clear   40 40     99% 37            
Jan 18 23:36 NE 1   Clear   40 39     98%              
Jan 18 22:36 SE 2   Clear   40 39     95%              
Jun 11 10:36 NE 1   Clear   63 51     66%              
Jun 10 09:36 Calm   Clear   56 51     84%              
Jun 08 22:36 Calm   Clear   53 50     90%              
Jun 08 10:36 SE 3   Clear   59 57     92%              
Jun 05 23:36 W 1   Clear   52 47     82%              
Jun 05 14:36 N 2   Clear   74 40     29%   72